sensor_id;sensor_type;location;lat;lon;timestamp;P1;durP1;ratioP1;P2;durP2;ratioP2
46637;SDS011;32365;46.938;7.390;2022-08-19T06:41:18;10.93;;;9.98;;
46637;SDS011;32365;46.938;7.390;2022-08-19T06:43:45;9.93;;;8.93;;
46637;SDS011;32365;46.938;7.390;2022-08-19T06:46:14;14.63;;;9.70;;
46637;SDS011;32365;46.938;7.390;2022-08-19T06:48:43;18.02;;;10.50;;
46637;SDS011;32365;46.938;7.390;2022-08-19T06:51:10;13.85;;;9.90;;
46637;SDS011;32365;46.938;7.390;2022-08-19T06:53:36;13.55;;;9.98;;
46637;SDS011;32365;46.938;7.390;2022-08-19T06:56:04;10.32;;;9.05;;
46637;SDS011;32365;46.938;7.390;2022-08-19T06:58:32;12.93;;;9.52;;
46637;SDS011;32365;46.938;7.390;2022-08-19T07:00:59;11.30;;;8.90;;
46637;SDS011;32365;46.938;7.390;2022-08-19T07:03:28;14.95;;;11.00;;
46637;SDS011;32365;46.938;7.390;2022-08-19T07:05:57;10.50;;;9.05;;
46637;SDS011;32365;46.938;7.390;2022-08-19T07:08:24;11.10;;;10.00;;
46637;SDS011;32365;46.938;7.390;2022-08-19T07:10:52;16.52;;;10.57;;
46637;SDS011;32365;46.938;7.390;2022-08-19T07:13:19;12.40;;;9.93;;
46637;SDS011;32365;46.938;7.390;2022-08-19T07:15:48;10.00;;;9.10;;
46637;SDS011;32365;46.938;7.390;2022-08-19T07:18:16;13.73;;;10.60;;
46637;SDS011;32365;46.938;7.390;2022-08-19T07:20:44;15.07;;;9.57;;
46637;SDS011;32365;46.938;7.390;2022-08-19T07:23:11;13.75;;;9.18;;
46637;SDS011;32365;46.938;7.390;2022-08-19T07:25:38;9.82;;;8.82;;
46637;SDS011;32365;46.938;7.390;2022-08-19T07:28:05;13.48;;;9.18;;
46637;SDS011;32365;46.938;7.390;2022-08-19T07:30:35;8.90;;;8.02;;
46637;SDS011;32365;46.938;7.390;2022-08-19T07:33:04;9.75;;;8.75;;
46637;SDS011;32365;46.938;7.390;2022-08-19T07:35:31;10.55;;;9.55;;
46637;SDS011;32365;46.938;7.390;2022-08-19T07:37:58;10.38;;;9.38;;
46637;SDS011;32365;46.938;7.390;2022-08-19T07:40:28;13.85;;;10.48;;
46637;SDS011;32365;46.938;7.390;2022-08-19T07:42:55;10.85;;;9.02;;
46637;SDS011;32365;46.938;7.390;2022-08-19T07:45:21;9.77;;;8.73;;
46637;SDS011;32365;46.938;7.390;2022-08-19T07:47:48;10.77;;;9.70;;
46637;SDS011;32365;46.938;7.390;2022-08-19T07:50:17;10.07;;;8.52;;
46637;SDS011;32365;46.938;7.390;2022-08-19T07:52:44;9.93;;;8.90;;
46637;SDS011;32365;46.938;7.390;2022-08-19T07:55:11;11.23;;;9.13;;
46637;SDS011;32365;46.938;7.390;2022-08-19T07:57:38;11.90;;;9.00;;
46637;SDS011;32365;46.938;7.390;2022-08-19T08:00:05;16.63;;;8.98;;
46637;SDS011;32365;46.938;7.390;2022-08-19T08:02:33;11.45;;;9.55;;
46637;SDS011;32365;46.938;7.390;2022-08-19T08:04:59;10.23;;;7.97;;
46637;SDS011;32365;46.938;7.390;2022-08-19T08:07:45;9.50;;;8.13;;
46637;SDS011;32365;46.938;7.390;2022-08-19T08:10:30;12.95;;;8.60;;
46637;SDS011;32365;46.938;7.390;2022-08-19T08:12:57;11.57;;;9.45;;
46637;SDS011;32365;46.938;7.390;2022-08-19T08:15:24;13.80;;;10.35;;
46637;SDS011;32365;46.938;7.390;2022-08-19T08:17:51;11.98;;;10.73;;
46637;SDS011;32365;46.938;7.390;2022-08-19T08:20:18;12.10;;;8.68;;
46637;SDS011;32365;46.938;7.390;2022-08-19T08:22:47;16.80;;;10.60;;
46637;SDS011;32365;46.938;7.390;2022-08-19T08:25:31;12.88;;;10.65;;
46637;SDS011;32365;46.938;7.390;2022-08-19T08:27:58;11.27;;;10.07;;
46637;SDS011;32365;46.938;7.390;2022-08-19T08:30:25;9.93;;;8.98;;
46637;SDS011;32365;46.938;7.390;2022-08-19T08:32:53;10.82;;;9.00;;
46637;SDS011;32365;46.938;7.390;2022-08-19T08:35:22;9.75;;;8.75;;
46637;SDS011;32365;46.938;7.390;2022-08-19T08:37:52;9.68;;;8.68;;
46637;SDS011;32365;46.938;7.390;2022-08-19T08:40:22;8.40;;;7.57;;
46637;SDS011;32365;46.938;7.390;2022-08-19T08:42:57;9.25;;;7.75;;
46637;SDS011;32365;46.938;7.390;2022-08-19T08:45:30;8.55;;;7.75;;
46637;SDS011;32365;46.938;7.390;2022-08-19T08:48:00;7.25;;;6.55;;
46637;SDS011;32365;46.938;7.390;2022-08-19T08:53:02;8.10;;;7.25;;
46637;SDS011;32365;46.938;7.390;2022-08-19T08:55:31;8.13;;;7.15;;
46637;SDS011;32365;46.938;7.390;2022-08-19T08:58:00;8.50;;;7.28;;
46637;SDS011;32365;46.938;7.390;2022-08-19T09:02:59;7.32;;;6.68;;
46637;SDS011;32365;46.938;7.390;2022-08-19T09:05:30;8.43;;;7.72;;
46637;SDS011;32365;46.938;7.390;2022-08-19T09:08:10;8.35;;;7.55;;
46637;SDS011;32365;46.938;7.390;2022-08-19T09:10:43;9.15;;;8.23;;
46637;SDS011;32365;46.938;7.390;2022-08-19T09:13:17;7.80;;;7.00;;
46637;SDS011;32365;46.938;7.390;2022-08-19T09:15:55;9.60;;;8.63;;
46637;SDS011;32365;46.938;7.390;2022-08-19T09:18:36;11.43;;;7.60;;
46637;SDS011;32365;46.938;7.390;2022-08-19T09:21:05;8.13;;;7.40;;
46637;SDS011;32365;46.938;7.390;2022-08-19T09:23:35;7.90;;;7.20;;
46637;SDS011;32365;46.938;7.390;2022-08-19T09:26:06;11.20;;;7.50;;
46637;SDS011;32365;46.938;7.390;2022-08-19T09:28:34;10.32;;;7.57;;
46637;SDS011;32365;46.938;7.390;2022-08-19T09:31:02;8.13;;;6.90;;
46637;SDS011;32365;46.938;7.390;2022-08-19T09:33:28;7.38;;;6.68;;
46637;SDS011;32365;46.938;7.390;2022-08-19T09:36:01;7.85;;;7.13;;
46637;SDS011;32365;46.938;7.390;2022-08-19T09:38:30;7.63;;;7.03;;
46637;SDS011;32365;46.938;7.390;2022-08-19T09:41:02;7.25;;;6.60;;
46637;SDS011;32365;46.938;7.390;2022-08-19T09:43:30;12.48;;;8.25;;
46637;SDS011;32365;46.938;7.390;2022-08-19T09:45:58;8.05;;;6.47;;
46637;SDS011;32365;46.938;7.390;2022-08-19T09:48:25;8.30;;;7.50;;
46637;SDS011;32365;46.938;7.390;2022-08-19T09:50:52;9.18;;;8.10;;
46637;SDS011;32365;46.938;7.390;2022-08-19T09:53:19;8.30;;;7.40;;
46637;SDS011;32365;46.938;7.390;2022-08-19T09:55:47;7.15;;;6.47;;
46637;SDS011;32365;46.938;7.390;2022-08-19T09:58:16;7.65;;;6.95;;
46637;SDS011;32365;46.938;7.390;2022-08-19T10:00:42;7.38;;;6.78;;
46637;SDS011;32365;46.938;7.390;2022-08-19T10:03:10;7.65;;;6.85;;
46637;SDS011;32365;46.938;7.390;2022-08-19T10:05:37;8.63;;;6.97;;
46637;SDS011;32365;46.938;7.390;2022-08-19T10:08:16;8.60;;;7.38;;
46637;SDS011;32365;46.938;7.390;2022-08-19T10:10:45;8.18;;;7.35;;
46637;SDS011;32365;46.938;7.390;2022-08-19T10:13:13;8.25;;;6.85;;
46637;SDS011;32365;46.938;7.390;2022-08-19T10:15:42;7.03;;;6.32;;
46637;SDS011;32365;46.938;7.390;2022-08-19T10:18:09;7.70;;;6.65;;
46637;SDS011;32365;46.938;7.390;2022-08-19T10:20:36;7.60;;;6.20;;
46637;SDS011;32365;46.938;7.390;2022-08-19T10:23:03;8.85;;;6.95;;
46637;SDS011;32365;46.938;7.390;2022-08-19T10:25:31;5.88;;;5.28;;
46637;SDS011;32365;46.938;7.390;2022-08-19T10:27:59;6.93;;;6.32;;
46637;SDS011;32365;46.938;7.390;2022-08-19T10:30:25;6.80;;;6.15;;
46637;SDS011;32365;46.938;7.390;2022-08-19T10:32:54;7.63;;;6.75;;
46637;SDS011;32365;46.938;7.390;2022-08-19T10:35:20;7.05;;;6.35;;
46637;SDS011;32365;46.938;7.390;2022-08-19T10:37:47;6.85;;;6.25;;
46637;SDS011;32365;46.938;7.390;2022-08-19T10:40:14;6.97;;;6.18;;
46637;SDS011;32365;46.938;7.390;2022-08-19T10:42:41;8.95;;;6.25;;
46637;SDS011;32365;46.938;7.390;2022-08-19T10:45:08;7.65;;;5.22;;
46637;SDS011;32365;46.938;7.390;2022-08-19T10:47:36;6.38;;;5.78;;
46637;SDS011;32365;46.938;7.390;2022-08-19T10:50:05;6.30;;;5.80;;
46637;SDS011;32365;46.938;7.390;2022-08-19T10:52:49;6.57;;;6.07;;
46637;SDS011;32365;46.938;7.390;2022-08-19T10:55:17;6.38;;;5.82;;
46637;SDS011;32365;46.938;7.390;2022-08-19T10:58:03;7.15;;;6.55;;
46637;SDS011;32365;46.938;7.390;2022-08-19T11:00:30;7.07;;;6.35;;
46637;SDS011;32365;46.938;7.390;2022-08-19T11:02:57;9.73;;;6.32;;
46637;SDS011;32365;46.938;7.390;2022-08-19T11:05:25;6.70;;;6.20;;
46637;SDS011;32365;46.938;7.390;2022-08-19T11:07:52;8.30;;;7.03;;
46637;SDS011;32365;46.938;7.390;2022-08-19T11:10:18;7.38;;;6.70;;
46637;SDS011;32365;46.938;7.390;2022-08-19T11:12:45;8.15;;;7.45;;
46637;SDS011;32365;46.938;7.390;2022-08-19T11:15:13;7.68;;;6.90;;
46637;SDS011;32365;46.938;7.390;2022-08-19T11:17:40;6.95;;;6.43;;
46637;SDS011;32365;46.938;7.390;2022-08-19T11:20:08;6.88;;;6.30;;
46637;SDS011;32365;46.938;7.390;2022-08-19T11:22:37;8.07;;;7.35;;
46637;SDS011;32365;46.938;7.390;2022-08-19T11:25:04;7.90;;;7.30;;
46637;SDS011;32365;46.938;7.390;2022-08-19T11:27:32;9.20;;;8.20;;
46637;SDS011;32365;46.938;7.390;2022-08-19T11:29:58;10.07;;;8.05;;
46637;SDS011;32365;46.938;7.390;2022-08-19T11:32:25;8.70;;;7.90;;
46637;SDS011;32365;46.938;7.390;2022-08-19T11:34:52;8.68;;;7.97;;
46637;SDS011;32365;46.938;7.390;2022-08-19T11:37:19;10.90;;;8.70;;
46637;SDS011;32365;46.938;7.390;2022-08-19T11:39:47;9.35;;;8.55;;
46637;SDS011;32365;46.938;7.390;2022-08-19T11:42:14;9.57;;;8.77;;
46637;SDS011;32365;46.938;7.390;2022-08-19T11:45:01;9.40;;;8.60;;
46637;SDS011;32365;46.938;7.390;2022-08-19T11:47:28;14.95;;;9.07;;
46637;SDS011;32365;46.938;7.390;2022-08-19T11:49:56;10.23;;;9.23;;
46637;SDS011;32365;46.938;7.390;2022-08-19T11:52:22;11.20;;;9.70;;
46637;SDS011;32365;46.938;7.390;2022-08-19T11:54:51;11.18;;;9.88;;
46637;SDS011;32365;46.938;7.390;2022-08-19T11:57:18;14.93;;;11.10;;
46637;SDS011;32365;46.938;7.390;2022-08-19T11:59:49;24.80;;;11.23;;
46637;SDS011;32365;46.938;7.390;2022-08-19T12:02:17;13.07;;;8.63;;
46637;SDS011;32365;46.938;7.390;2022-08-19T12:04:44;6.78;;;6.15;;
46637;SDS011;32365;46.938;7.390;2022-08-19T12:07:10;7.50;;;6.80;;
46637;SDS011;32365;46.938;7.390;2022-08-19T12:09:37;7.07;;;6.47;;
46637;SDS011;32365;46.938;7.390;2022-08-19T12:12:05;7.95;;;7.15;;
46637;SDS011;32365;46.938;7.390;2022-08-19T12:14:33;9.85;;;8.55;;
46637;SDS011;32365;46.938;7.390;2022-08-19T12:17:00;8.95;;;7.05;;
46637;SDS011;32365;46.938;7.390;2022-08-19T12:19:29;8.57;;;7.78;;
46637;SDS011;32365;46.938;7.390;2022-08-19T12:21:58;8.55;;;7.72;;
46637;SDS011;32365;46.938;7.390;2022-08-19T12:24:26;8.73;;;7.80;;
46637;SDS011;32365;46.938;7.390;2022-08-19T12:26:54;8.05;;;7.35;;
